Terminal Aerodrome Forecast
Issued by NWS Lake Charles, LA

Home | Current Version | Previous Version | Text Only | Print | Product List | Glossary On
Versions: 1 2 3 4 5 6 7 8 9 10 11 12 13 14 15 16 17 18 19
134
FTUS44 KLCH 272340
TAFLFT
TAF
KLFT 272340Z 2800/2824 17010G16KT P6SM BKN017 BKN025 BKN035
      TEMPO 2804/2806 BKN009
     FM280600 17007KT 4SM BR BKN009
      TEMPO 2808/2812 2SM BR OVC004
     FM281500 18013G19KT P6SM OVC012
     FM281800 18013KT P6SM OVC045=

USA.gov is the U.S. government's official web portal to all federal, state and local government web resources and services.